NCAR-RAP Real-Time Weather Data

Output produced by METARs form (24 April 2018  22:57 UTC)
found at http://weather.rap.ucar.edu/surface/
 
RJFG 240900Z 18012KT 140V220 4000 -SHRA BR FEW001 SCT005 BKN008 21/21 Q1005
RJFG 240800Z 18014G26KT 140V210 5000 -SHRA BR FEW001 SCT007 BKN010 21/20 Q1005
RJFG 240738Z 17013G23KT 130V210 4000 R31/1000VP1800U SHRA BR FEW004 SCT008 BKN010 21/20 Q1006 RMK 1ST004 3CU008 5CU010 A2971
RJFG 240728Z 18012KT 140V210 1500 R31/1000VP1800D +SHRA BR FEW005 SCT008 BKN010 21/20 Q1006 RMK 1ST005 3CU008 5CU010 A2971
RJFG 240724Z 17011KT 120V210 3000 -SHRA BR FEW005 SCT008 BKN010 21/20 Q1006 RMK 1ST005 3CU008 5CU010 A2971
RJFG 240700Z 18011KT 130V220 8000 FEW005 SCT010 BKN015 21/20 Q1006
RJFG 240600Z 17015KT 140V200 8000 FEW005 SCT010 BKN015 21/20 Q1007
RJFG 240500Z 17015G25KT 140V210 8000 FEW008 SCT010 BKN015 22/19 Q1008
RJFG 240400Z 18013KT 150V210 8000 FEW006 SCT010 BKN015 22/20 Q1008
RJFG 240300Z 18011KT 150V230 8000 FEW008 SCT010 BKN015 22/20 Q1009
RJFG 240200Z 17015G26KT 9999 -SHRA FEW008 SCT010 BKN015 22/20 Q1010
RJFG 240100Z 18013G24KT 140V220 9999 FEW007 SCT010 BKN015 21/20 Q1011
RJFG 240000Z 17013KT 140V210 8000 FEW008 SCT015 BKN020 21/19 Q1011
RJFG 232330Z 17013KT 8000 FEW005 SCT010 BKN030 21/20 Q1011
RJFG 230900Z 14009KT 9999 FEW020 SCT070 BKN090 20/17 Q1015
RJFG 230800Z 14009KT 9999 FEW020 SCT070 BKN090 20/16 Q1015
RJFG 230700Z 15009KT 120V180 9999 FEW020 SCT070 BKN100 21/17 Q1015
RJFG 230600Z 15010KT 100V190 9999 FEW020 SCT070 BKN120 21/16 Q1015
RJFG 230500Z 14013KT 9999 FEW020 BKN130 22/16 Q1016
RJFG 230400Z 14010KT 110V170 9999 FEW020 SCT035 BKN130 22/16 Q1017
RJFG 230300Z 14013KT 9999 FEW020 SCT035 BKN170 23/16 Q1017
RJFG 230200Z 15013KT 9999 FEW025 SCT035 BKN/// 23/16 Q1017
RJFG 230100Z 14011KT 9999 FEW025 BKN035 22/15 Q1017
RJFG 230000Z 15010KT 9999 FEW020 SCT030 BKN035 21/16 Q1018
RJFG 222330Z 15010KT 120V180 9999 FEW025 SCT030 BKN/// 21/15 Q1018